Language: 


Des rapports , des résumés tant et plus, au choix de chacun....


Données Historiques de Météogheer
Journalier Rapport pour Février 21, 2017 Unitée:  Les deux    Impériale   Métrique
Suivant Jour »
Journalier Hebdomadaire Mensuel Annuel Sur mesure
  Max: Min: Moyenne:
Température: 53.8 °F /  12.1 °C 32 °F /  0.0 °C 51.1 °F /  10.6 °C
Point de rosée: 52.3 °F /  11.3 °C 48.9 °F /  9.4 °C 50 °F /  10 °C
Humidité: 98% 0% 96%
Vent: 27.1mph /  43.6km/h - 10.7mph /  17.3km/h
Rafales: 27.1mph /  43.6km/h - -
Vent- - WSW
Pression: 30.1 in /  1018.2 hPa 29.9 in /  1013.1 hPa -
Pluie: 0.23 in /  5.8 mm    
Historical Graphs
 
 
Données tabulaires pour Février 21, 2017
Heure Température Point de rosée Pression Vent Vent Rafales Humidité Pluie Taux (Horaire) Conditions
00:01 50.9 °F /  10.5 °C 50.2 °F /  10.1 °C 30in /  1016.1hPa West 10.7mph /  17.2km/h 16.1mph /  25.9km/h 97% 0in /  0.0mm
00:06 50.9 °F /  10.5 °C 50.2 °F /  10.1 °C 30in /  1016.1hPa WSW 12.3mph /  19.8km/h 16.1mph /  25.9km/h 97% 0in /  0.0mm
00:11 50.9 °F /  10.5 °C 50.2 °F /  10.1 °C 30in /  1016.8hPa West 10.1mph /  16.3km/h 15.9mph /  25.6km/h 97% 0in /  0.0mm
00:16 50.9 °F /  10.5 °C 50.2 °F /  10.1 °C 30in /  1016.8hPa WSW 7.8mph /  12.6km/h 15.4mph /  24.8km/h 97% 0in /  0.0mm
00:21 50.9 °F /  10.5 °C 50.2 °F /  10.1 °C 30in /  1016.8hPa West 10.1mph /  16.3km/h 15.4mph /  24.8km/h 97% 0in /  0.0mm
00:26 50.9 °F /  10.5 °C 50.2 °F /  10.1 °C 30in /  1016.8hPa WSW 9.6mph /  15.4km/h 13.2mph /  21.2km/h 97% 0in /  0.0mm
00:27 50.9 °F /  10.5 °C 50.2 °F /  10.1 °C 30in /  1016.8hPa WSW 13mph /  20.9km/h 13.2mph /  21.2km/h 97% 0in /  0.0mm
00:32 50.9 °F /  10.5 °C 50.2 °F /  10.1 °C 30in /  1016.8hPa WSW 10.5mph /  16.9km/h 13mph /  20.9km/h 97% 0in /  0.0mm
00:37 50.9 °F /  10.5 °C 50.2 °F /  10.1 °C 30in /  1016.8hPa WSW 12.8mph /  20.6km/h 15.2mph /  24.5km/h 97% 0in /  0.0mm
00:42 50.9 °F /  10.5 °C 50.2 °F /  10.1 °C 30in /  1016.8hPa West 10.3mph /  16.6km/h 15.2mph /  24.5km/h 97% 0in /  0.0mm
00:47 50.7 °F /  10.4 °C 49.8 °F /  9.9 °C 30in /  1016.8hPa West 10.3mph /  16.6km/h 12.8mph /  20.6km/h 97% 0in /  0.0mm
00:52 50.7 °F /  10.4 °C 49.8 °F /  9.9 °C 30in /  1016.8hPa WSW 6.3mph /  10.1km/h 12.5mph /  20.1km/h 97% 0in /  0.0mm
00:57 50.7 °F /  10.4 °C 49.8 °F /  9.9 °C 30in /  1016.1hPa WSW 9.2mph /  14.8km/h 15.2mph /  24.5km/h 97% 0in /  0.0mm
01:02 50.7 °F /  10.4 °C 49.8 °F /  9.9 °C 30in /  1016.1hPa West 9.8mph /  15.8km/h 15.2mph /  24.5km/h 97% 0in /  0.0mm
01:07 50.9 °F /  10.5 °C 50.2 °F /  10.1 °C 30in /  1016.1hPa West 11mph /  17.7km/h 14.5mph /  23.3km/h 97% 0in /  0.0mm
01:12 50.9 °F /  10.5 °C 50.2 °F /  10.1 °C 30in /  1016.8hPa WSW 12.1mph /  19.5km/h 14.3mph /  23.0km/h 97% 0in /  0.0mm
01:17 50.9 °F /  10.5 °C 50.2 °F /  10.1 °C 30in /  1016.8hPa West 8.1mph /  13.0km/h 13.2mph /  21.2km/h 97% 0in /  0.0mm
01:22 50.9 °F /  10.5 °C 50.2 °F /  10.1 °C 30in /  1016.8hPa West 12.8mph /  20.6km/h 13.2mph /  21.2km/h 97% 0in /  0.0mm
01:27 50.9 °F /  10.5 °C 50.2 °F /  10.1 °C 30in /  1016.8hPa WSW 8.5mph /  13.7km/h 13.2mph /  21.2km/h 97% 0in /  0.0mm
01:32 50.9 °F /  10.5 °C 50.2 °F /  10.1 °C 30in /  1016.8hPa West 7.2mph /  11.6km/h 13mph /  20.9km/h 97% 0in /  0.0mm
01:37 51.1 °F /  10.6 °C 50.2 °F /  10.1 °C 30in /  1016.8hPa West 11mph /  17.7km/h 13mph /  20.9km/h 97% 0in /  0.0mm
01:42 51.1 °F /  10.6 °C 50.2 °F /  10.1 °C 30in /  1016.8hPa West 8.7mph /  14.0km/h 12.3mph /  19.8km/h 97% 0in /  0.0mm
01:47 51.1 °F /  10.6 °C 50.2 °F /  10.1 °C 30in /  1016.8hPa West 10.5mph /  16.9km/h 13.2mph /  21.2km/h 97% 0in /  0.0mm
01:52 51.1 °F /  10.6 °C 50.2 °F /  10.1 °C 30in /  1016.8hPa West 8.5mph /  13.7km/h 13.2mph /  21.2km/h 97% 0in /  0.0mm
01:57 51.1 °F /  10.6 °C 50.2 °F /  10.1 °C 30in /  1016.8hPa West 9.8mph /  15.8km/h 12.8mph /  20.6km/h 97% 0in /  0.0mm
02:02 32 °F /  0.0 °C 50.2 °F /  10.1 °C 30in /  1016.8hPa West 8.1mph /  13.0km/h 11.9mph /  19.1km/h 0% 0in /  0.0mm
02:07 51.1 °F /  10.6 °C 50.2 °F /  10.1 °C 30in /  1016.8hPa West 6mph /  9.7km/h 12.8mph /  20.6km/h 97% 0in /  0.0mm
02:12 51.1 °F /  10.6 °C 50.2 °F /  10.1 °C 30in /  1016.8hPa West 13.9mph /  22.4km/h 13.9mph /  22.4km/h 97% 0in /  0.0mm
02:17 51.1 °F /  10.6 °C 50.2 °F /  10.1 °C 30in /  1016.8hPa West 10.3mph /  16.6km/h 14.5mph /  23.3km/h 97% 0in /  0.0mm
02:22 51.1 °F /  10.6 °C 50.2 °F /  10.1 °C 30in /  1016.8hPa West 7.2mph /  11.6km/h 14.5mph /  23.3km/h 97% 0in /  0.0mm
02:27 51.1 °F /  10.6 °C 50.2 °F /  10.1 °C 30in /  1016.8hPa West 12.8mph /  20.6km/h 13.2mph /  21.2km/h 97% 0in /  0.0mm
02:32 51.1 °F /  10.6 °C 50.2 °F /  10.1 °C 30in /  1016.8hPa West 7.8mph /  12.6km/h 13.2mph /  21.2km/h 97% 0in /  0.0mm
02:37 51.1 °F /  10.6 °C 50.2 °F /  10.1 °C 30in /  1016.8hPa West 10.7mph /  17.2km/h 12.8mph /  20.6km/h 97% 0in /  0.0mm
02:42 51.1 °F /  10.6 °C 50.2 °F /  10.1 °C 30in /  1016.8hPa West 7.6mph /  12.2km/h 10.7mph /  17.2km/h 97% 0in /  0.0mm
02:47 51.1 °F /  10.6 °C 50.2 °F /  10.1 °C 30in /  1016.8hPa West 8.1mph /  13.0km/h 11.9mph /  19.1km/h 97% 0in /  0.0mm
02:52 51.1 °F /  10.6 °C 50.2 °F /  10.1 °C 30in /  1016.8hPa West 9.8mph /  15.8km/h 11.9mph /  19.1km/h 97% 0in /  0.0mm
02:57 50.9 °F /  10.5 °C 50.2 °F /  10.1 °C 30in /  1016.8hPa West 7.8mph /  12.6km/h 9.8mph /  15.8km/h 97% 0in /  0.0mm
03:02 50.9 °F /  10.5 °C 50.2 °F /  10.1 °C 30in /  1016.8hPa West 8.1mph /  13.0km/h 9.8mph /  15.8km/h 97% 0in /  0.0mm
03:07 50.9 °F /  10.5 °C 50.2 °F /  10.1 °C 30in /  1016.8hPa West 7.8mph /  12.6km/h 8.1mph /  13.0km/h 97% 0in /  0.0mm
03:12 51.1 °F /  10.6 °C 50.2 °F /  10.1 °C 30in /  1016.8hPa West 9.6mph /  15.4km/h 9.6mph /  15.4km/h 97% 0in /  0.0mm
03:17 51.1 °F /  10.6 °C 50.2 °F /  10.1 °C 30in /  1016.8hPa WSW 7.4mph /  11.9km/h 9.6mph /  15.4km/h 97% 0in /  0.0mm
03:22 51.1 °F /  10.6 °C 50.2 °F /  10.1 °C 30in /  1016.8hPa West 5.6mph /  9.0km/h 9.8mph /  15.8km/h 97% 0in /  0.0mm
03:27 51.1 °F /  10.6 °C 50.2 °F /  10.1 °C 30in /  1016.8hPa West 8.7mph /  14.0km/h 9.8mph /  15.8km/h 97% 0in /  0.0mm
03:32 51.1 °F /  10.6 °C 50.2 °F /  10.1 °C 30in /  1016.8hPa West 8.7mph /  14.0km/h 9.8mph /  15.8km/h 97% 0in /  0.0mm
03:37 51.1 °F /  10.6 °C 50.2 °F /  10.1 °C 30in /  1016.8hPa West 10.3mph /  16.6km/h 10.3mph /  16.6km/h 97% 0in /  0.0mm
03:42 51.1 °F /  10.6 °C 50.2 °F /  10.1 °C 30in /  1016.8hPa West 6.5mph /  10.5km/h 10.3mph /  16.6km/h 97% 0in /  0.0mm
03:47 51.1 °F /  10.6 °C 50.2 °F /  10.1 °C 30in /  1016.8hPa West 7.8mph /  12.6km/h 10.3mph /  16.6km/h 97% 0in /  0.0mm
03:52 51.1 °F /  10.6 °C 50.2 °F /  10.1 °C 30in /  1016.8hPa West 7.8mph /  12.6km/h 9.8mph /  15.8km/h 97% 0in /  0.0mm
03:57 51.1 °F /  10.6 °C 50.2 °F /  10.1 °C 30in /  1016.8hPa West 8.7mph /  14.0km/h 9.8mph /  15.8km/h 97% 0in /  0.0mm
04:02 51.1 °F /  10.6 °C 50.2 °F /  10.1 °C 30in /  1016.8hPa West 9.8mph /  15.8km/h 9.8mph /  15.8km/h 97% 0in /  0.0mm
04:03 51.1 °F /  10.6 °C 50.2 °F /  10.1 °C 30in /  1016.8hPa WSW 9.4mph /  15.1km/h 9.8mph /  15.8km/h 97% 0in /  0.0mm
04:08 51.1 °F /  10.6 °C 50.2 °F /  10.1 °C 30in /  1016.1hPa West 8.1mph /  13.0km/h 9.8mph /  15.8km/h 97% 0in /  0.0mm
04:13 51.1 °F /  10.6 °C 50.2 °F /  10.1 °C 30in /  1016.1hPa West 7.4mph /  11.9km/h 12.1mph /  19.5km/h 97% 0in /  0.0mm
04:18 51.1 °F /  10.6 °C 50.2 °F /  10.1 °C 30in /  1016.1hPa West 6mph /  9.7km/h 12.1mph /  19.5km/h 97% 0in /  0.0mm
04:23 51.1 °F /  10.6 °C 50.2 °F /  10.1 °C 30in /  1016.1hPa West 8.7mph /  14.0km/h 12.1mph /  19.5km/h 97% 0in /  0.0mm
04:28 51.1 °F /  10.6 °C 50 °F /  10.0 °C 30in /  1016.1hPa West 8.9mph /  14.3km/h 12.1mph /  19.5km/h 96% 0in /  0.0mm
04:33 51.1 °F /  10.6 °C 50.2 °F /  10.1 °C 30in /  1016.1hPa West 8.7mph /  14.0km/h 12.5mph /  20.1km/h 97% 0in /  0.0mm
04:38 51.1 °F /  10.6 °C 50 °F /  10.0 °C 30in /  1016.1hPa West 10.7mph /  17.2km/h 13.2mph /  21.2km/h 96% 0in /  0.0mm
04:43 51.1 °F /  10.6 °C 50 °F /  10.0 °C 30in /  1016.1hPa West 7.8mph /  12.6km/h 13.2mph /  21.2km/h 96% 0in /  0.0mm
04:48 51.1 °F /  10.6 °C 50 °F /  10.0 °C 30in /  1016.1hPa West 7.6mph /  12.2km/h 13mph /  20.9km/h 96% 0in /  0.0mm
04:53 51.1 °F /  10.6 °C 50 °F /  10.0 °C 30in /  1016.1hPa West 8.7mph /  14.0km/h 13mph /  20.9km/h 96% 0in /  0.0mm
04:58 51.1 °F /  10.6 °C 50 °F /  10.0 °C 30in /  1016.1hPa West 7.8mph /  12.6km/h 12.8mph /  20.6km/h 96% 0in /  0.0mm
05:03 51.1 °F /  10.6 °C 50 °F /  10.0 °C 30in /  1016.1hPa West 10.3mph /  16.6km/h 13.9mph /  22.4km/h 96% 0in /  0.0mm
05:08 51.1 °F /  10.6 °C 50 °F /  10.0 °C 30in /  1016.1hPa West 8.5mph /  13.7km/h 13.9mph /  22.4km/h 96% 0in /  0.0mm
05:13 51.1 °F /  10.6 °C 50 °F /  10.0 °C 30in /  1016.1hPa West 9.8mph /  15.8km/h 13.2mph /  21.2km/h 96% 0in /  0.0mm
05:18 51.1 °F /  10.6 °C 50 °F /  10.0 °C 30in /  1016.1hPa West 9.8mph /  15.8km/h 14.8mph /  23.8km/h 96% 0in /  0.0mm
05:23 51.1 °F /  10.6 °C 50 °F /  10.0 °C 30in /  1016.1hPa West 9.8mph /  15.8km/h 14.8mph /  23.8km/h 96% 0in /  0.0mm
05:28 51.1 °F /  10.6 °C 50 °F /  10.0 °C 30in /  1016.1hPa West 8.7mph /  14.0km/h 12.5mph /  20.1km/h 96% 0in /  0.0mm
05:33 51.1 °F /  10.6 °C 50 °F /  10.0 °C 30in /  1016.1hPa WSW 8.7mph /  14.0km/h 12.3mph /  19.8km/h 96% 0in /  0.0mm
05:38 51.1 °F /  10.6 °C 50 °F /  10.0 °C 30in /  1016.1hPa WSW 10.1mph /  16.3km/h 12.3mph /  19.8km/h 96% 0in /  0.0mm
05:43 51.1 °F /  10.6 °C 50 °F /  10.0 °C 30in /  1016.1hPa West 10.1mph /  16.3km/h 12.1mph /  19.5km/h 96% 0in /  0.0mm
05:48 51.1 °F /  10.6 °C 50 °F /  10.0 °C 30in /  1016.1hPa West 9.4mph /  15.1km/h 12.1mph /  19.5km/h 96% 0in /  0.0mm
05:53 51.1 °F /  10.6 °C 50 °F /  10.0 °C 30in /  1016.8hPa West 10.3mph /  16.6km/h 12.3mph /  19.8km/h 96% 0in /  0.0mm
05:58 51.1 °F /  10.6 °C 50 °F /  10.0 °C 30in /  1016.8hPa West 8.1mph /  13.0km/h 12.3mph /  19.8km/h 96% 0in /  0.0mm
06:03 50.9 °F /  10.5 °C 49.8 °F /  9.9 °C 30in /  1016.8hPa WSW 10.5mph /  16.9km/h 11mph /  17.7km/h 96% 0in /  0.0mm
06:08 50.9 °F /  10.5 °C 49.8 °F /  9.9 °C 30in /  1016.1hPa WSW 7.4mph /  11.9km/h 10.7mph /  17.2km/h 96% 0in /  0.0mm
06:13 50.9 °F /  10.5 °C 49.8 °F /  9.9 °C 30in /  1016.1hPa West 6.3mph /  10.1km/h 10.7mph /  17.2km/h 96% 0in /  0.0mm
06:18 50.7 °F /  10.4 °C 49.6 °F /  9.8 °C 30in /  1016.1hPa WSW 6mph /  9.7km/h 10.1mph /  16.3km/h 96% 0in /  0.0mm
06:23 50.7 °F /  10.4 °C 49.6 °F /  9.8 °C 30in /  1016.1hPa West 7.4mph /  11.9km/h 10.1mph /  16.3km/h 96% 0in /  0.0mm
06:28 50.5 °F /  10.3 °C 49.5 °F /  9.7 °C 30in /  1016.1hPa WSW 10.5mph /  16.9km/h 10.5mph /  16.9km/h 96% 0in /  0.0mm
06:33 50.5 °F /  10.3 °C 49.5 °F /  9.7 °C 30in /  1016.1hPa WSW 8.7mph /  14.0km/h 11.9mph /  19.1km/h 96% 0in /  0.0mm
06:38 50.5 °F /  10.3 °C 49.5 °F /  9.7 °C 30in /  1016.8hPa WSW 7.8mph /  12.6km/h 11.9mph /  19.1km/h 96% 0in /  0.0mm
06:43 50.5 °F /  10.3 °C 49.5 °F /  9.7 °C 30in /  1016.8hPa WSW 7.4mph /  11.9km/h 12.3mph /  19.8km/h 96% 0in /  0.0mm
06:48 50.5 °F /  10.3 °C 49.5 °F /  9.7 °C 30in /  1016.8hPa WSW 7.2mph /  11.6km/h 12.3mph /  19.8km/h 96% 0in /  0.0mm
06:53 50.5 °F /  10.3 °C 49.5 °F /  9.7 °C 30in /  1016.1hPa WSW 7.6mph /  12.2km/h 10.7mph /  17.2km/h 96% 0in /  0.0mm
06:58 50.5 °F /  10.3 °C 49.5 °F /  9.7 °C 30in /  1016.1hPa WSW 8.1mph /  13.0km/h 10.5mph /  16.9km/h 96% 0in /  0.0mm
07:03 50.5 °F /  10.3 °C 49.5 °F /  9.7 °C 30in /  1016.1hPa WSW 10.5mph /  16.9km/h 12.1mph /  19.5km/h 96% 0in /  0.0mm
07:08 50.5 °F /  10.3 °C 49.5 °F /  9.7 °C 30in /  1016.8hPa WSW 9.8mph /  15.8km/h 12.8mph /  20.6km/h 96% 0.01in /  0.3mm
07:13 50.5 °F /  10.3 °C 49.5 °F /  9.7 °C 30in /  1016.8hPa West 7.4mph /  11.9km/h 12.8mph /  20.6km/h 96% 0.01in /  0.3mm
07:18 50.4 °F /  10.2 °C 49.3 °F /  9.6 °C 30in /  1016.8hPa WSW 9.8mph /  15.8km/h 11.2mph /  18.0km/h 96% 0.01in /  0.3mm
07:23 50.4 °F /  10.2 °C 49.3 °F /  9.6 °C 30in /  1016.8hPa West 7.6mph /  12.2km/h 11mph /  17.7km/h 96% 0.01in /  0.3mm
07:28 50.4 °F /  10.2 °C 49.3 °F /  9.6 °C 30in /  1016.8hPa WSW 8.5mph /  13.7km/h 12.1mph /  19.5km/h 96% 0.01in /  0.3mm
07:33 50.4 °F /  10.2 °C 49.3 °F /  9.6 °C 30in /  1016.8hPa WSW 7.4mph /  11.9km/h 12.1mph /  19.5km/h 96% 0.01in /  0.3mm
07:38 50.4 °F /  10.2 °C 49.3 °F /  9.6 °C 30in /  1016.1hPa WSW 7.8mph /  12.6km/h 10.7mph /  17.2km/h 96% 0.01in /  0.3mm
07:43 50.4 °F /  10.2 °C 49.3 °F /  9.6 °C 30in /  1016.1hPa WSW 8.1mph /  13.0km/h 10.3mph /  16.6km/h 96% 0.02in /  0.5mm
07:48 50.2 °F /  10.1 °C 49.1 °F /  9.5 °C 30in /  1016.1hPa WSW 6.3mph /  10.1km/h 10.3mph /  16.6km/h 96% 0.02in /  0.5mm
07:53 50.2 °F /  10.1 °C 49.1 °F /  9.5 °C 30in /  1016.8hPa WSW 6mph /  9.7km/h 10.1mph /  16.3km/h 96% 0.02in /  0.5mm
07:58 50.2 °F /  10.1 °C 49.5 °F /  9.7 °C 30in /  1016.8hPa WSW 8.5mph /  13.7km/h 8.7mph /  14.0km/h 97% 0.02in /  0.5mm
08:03 50.2 °F /  10.1 °C 49.5 °F /  9.7 °C 30in /  1016.8hPa West 7.8mph /  12.6km/h 11mph /  17.7km/h 97% 0.02in /  0.5mm
08:08 50.2 °F /  10.1 °C 49.5 °F /  9.7 °C 30in /  1016.8hPa West 8.5mph /  13.7km/h 11mph /  17.7km/h 97% 0.01in /  0.3mm
08:13 50.2 °F /  10.1 °C 49.5 °F /  9.7 °C 30in /  1016.8hPa WSW 6.7mph /  10.8km/h 10.3mph /  16.6km/h 97% 0.02in /  0.5mm
08:18 50.2 °F /  10.1 °C 49.5 °F /  9.7 °C 30in /  1016.8hPa West 6.5mph /  10.5km/h 10.3mph /  16.6km/h 97% 0.03in /  0.8mm
08:23 50.2 °F /  10.1 °C 49.5 °F /  9.7 °C 30in /  1016.8hPa WSW 7.6mph /  12.2km/h 11mph /  17.7km/h 97% 0.03in /  0.8mm
08:28 50.2 °F /  10.1 °C 49.5 °F /  9.7 °C 30in /  1016.8hPa West 6mph /  9.7km/h 11mph /  17.7km/h 97% 0.03in /  0.8mm
08:33 50.2 °F /  10.1 °C 49.5 °F /  9.7 °C 30in /  1016.8hPa West 8.7mph /  14.0km/h 9.8mph /  15.8km/h 97% 0.06in /  1.5mm
08:38 50.2 °F /  10.1 °C 49.5 °F /  9.7 °C 30in /  1016.8hPa West 10.7mph /  17.2km/h 10.7mph /  17.2km/h 97% 0.06in /  1.5mm
08:43 50.2 °F /  10.1 °C 49.5 °F /  9.7 °C 30in /  1016.8hPa West 5.8mph /  9.3km/h 12.5mph /  20.1km/h 97% 0.06in /  1.5mm
08:48 50.2 °F /  10.1 °C 49.5 °F /  9.7 °C 30in /  1016.8hPa West 10.1mph /  16.3km/h 13mph /  20.9km/h 97% 0.06in /  1.5mm
08:53 50.2 °F /  10.1 °C 49.5 °F /  9.7 °C 30in /  1016.8hPa West 10.7mph /  17.2km/h 13mph /  20.9km/h 97% 0.07in /  1.8mm
08:58 50.2 °F /  10.1 °C 49.5 °F /  9.7 °C 30in /  1016.8hPa West 7.2mph /  11.6km/h 12.5mph /  20.1km/h 97% 0.07in /  1.8mm
09:03 50 °F /  10.0 °C 49.3 °F /  9.6 °C 30in /  1016.8hPa West 8.1mph /  13.0km/h 12.5mph /  20.1km/h 97% 0.07in /  1.8mm
09:08 50 °F /  10.0 °C 49.3 °F /  9.6 °C 30in /  1016.8hPa WSW 8.7mph /  14.0km/h 12.3mph /  19.8km/h 97% 0.07in /  1.8mm
09:13 50 °F /  10.0 °C 49.3 °F /  9.6 °C 30in /  1016.8hPa WSW 8.1mph /  13.0km/h 12.3mph /  19.8km/h 97% 0.07in /  1.8mm
09:18 50 °F /  10.0 °C 49.3 °F /  9.6 °C 30in /  1016.8hPa West 7.8mph /  12.6km/h 12.3mph /  19.8km/h 97% 0.07in /  1.8mm
09:23 50 °F /  10.0 °C 49.3 °F /  9.6 °C 30in /  1016.1hPa WSW 11mph /  17.7km/h 11.2mph /  18.0km/h 97% 0.07in /  1.8mm
09:28 50 °F /  10.0 °C 49.3 °F /  9.6 °C 30in /  1016.1hPa WSW 5.8mph /  9.3km/h 11mph /  17.7km/h 97% 0.07in /  1.8mm
09:33 50 °F /  10.0 °C 49.3 °F /  9.6 °C 30in /  1016.1hPa West 7.6mph /  12.2km/h 14.8mph /  23.8km/h 97% 0.06in /  1.5mm
09:38 50 °F /  10.0 °C 49.3 °F /  9.6 °C 30in /  1016.8hPa WSW 5.6mph /  9.0km/h 14.8mph /  23.8km/h 97% 0.06in /  1.5mm
09:43 50 °F /  10.0 °C 49.5 °F /  9.7 °C 30in /  1016.8hPa West 7.4mph /  11.9km/h 13.2mph /  21.2km/h 98% 0.04in /  1.0mm
09:48 50 °F /  10.0 °C 49.5 °F /  9.7 °C 30in /  1016.8hPa WSW 7.8mph /  12.6km/h 13mph /  20.9km/h 98% 0.04in /  1.0mm
09:53 50 °F /  10.0 °C 49.5 °F /  9.7 °C 30in /  1016.1hPa West 7.8mph /  12.6km/h 13.2mph /  21.2km/h 98% 0.04in /  1.0mm
09:58 50.2 °F /  10.1 °C 49.6 °F /  9.8 °C 30in /  1016.1hPa West 7.4mph /  11.9km/h 13.2mph /  21.2km/h 98% 0.04in /  1.0mm
10:03 50.2 °F /  10.1 °C 49.6 °F /  9.8 °C 30in /  1016.1hPa WSW 10.5mph /  16.9km/h 13.2mph /  21.2km/h 98% 0.04in /  1.0mm
10:08 50.2 °F /  10.1 °C 49.6 °F /  9.8 °C 30in /  1016.8hPa West 10.1mph /  16.3km/h 13.2mph /  21.2km/h 98% 0.04in /  1.0mm
10:13 50.2 °F /  10.1 °C 49.6 °F /  9.8 °C 30in /  1016.8hPa West 8.5mph /  13.7km/h 12.3mph /  19.8km/h 98% 0.03in /  0.8mm
10:18 50.2 °F /  10.1 °C 49.6 °F /  9.8 °C 30in /  1016.8hPa West 10.5mph /  16.9km/h 12.8mph /  20.6km/h 98% 0.04in /  1.0mm
10:23 50.2 °F /  10.1 °C 49.6 °F /  9.8 °C 30in /  1016.8hPa West 10.3mph /  16.6km/h 12.8mph /  20.6km/h 98% 0.04in /  1.0mm
10:28 50.4 °F /  10.2 °C 49.8 °F /  9.9 °C 30in /  1016.8hPa West 9.8mph /  15.8km/h 13.4mph /  21.6km/h 98% 0.04in /  1.0mm
10:33 50.4 °F /  10.2 °C 49.8 °F /  9.9 °C 30in /  1016.8hPa WSW 9.8mph /  15.8km/h 13.4mph /  21.6km/h 98% 0.03in /  0.8mm
10:38 50.4 °F /  10.2 °C 49.8 °F /  9.9 °C 30in /  1016.8hPa West 10.1mph /  16.3km/h 13.6mph /  21.9km/h 98% 0.04in /  1.0mm
10:43 50.5 °F /  10.3 °C 50 °F /  10.0 °C 30in /  1016.8hPa WSW 10.1mph /  16.3km/h 13.6mph /  21.9km/h 98% 0.04in /  1.0mm
10:48 50.5 °F /  10.3 °C 50 °F /  10.0 °C 30in /  1016.8hPa WSW 9.8mph /  15.8km/h 12.3mph /  19.8km/h 98% 0.03in /  0.8mm
10:53 50.5 °F /  10.3 °C 50 °F /  10.0 °C 30in /  1016.8hPa WSW 11mph /  17.7km/h 12.3mph /  19.8km/h 98% 0.03in /  0.8mm
10:58 50.5 °F /  10.3 °C 50 °F /  10.0 °C 30in /  1016.8hPa WSW 8.5mph /  13.7km/h 12.3mph /  19.8km/h 98% 0.03in /  0.8mm
11:03 50.5 °F /  10.3 °C 50 °F /  10.0 °C 30in /  1016.8hPa West 7.8mph /  12.6km/h 12.5mph /  20.1km/h 98% 0.04in /  1.0mm
11:08 50.5 °F /  10.3 °C 50 °F /  10.0 °C 30in /  1016.8hPa West 10.5mph /  16.9km/h 12.5mph /  20.1km/h 98% 0.04in /  1.0mm
11:13 50.7 °F /  10.4 °C 50.2 °F /  10.1 °C 30in /  1016.8hPa West 10.5mph /  16.9km/h 13mph /  20.9km/h 98% 0.04in /  1.0mm
11:18 50.7 °F /  10.4 °C 50.2 °F /  10.1 °C 30in /  1016.8hPa West 10.5mph /  16.9km/h 13mph /  20.9km/h 98% 0.02in /  0.5mm
11:23 50.7 °F /  10.4 °C 50.2 °F /  10.1 °C 30.1in /  1018.2hPa WSW 13mph /  20.9km/h 13.2mph /  21.2km/h 98% 0.03in /  0.8mm
11:28 50.7 °F /  10.4 °C 50.2 °F /  10.1 °C 30.1in /  1018.2hPa WSW 8.9mph /  14.3km/h 13.2mph /  21.2km/h 98% 0.03in /  0.8mm
11:33 50.7 °F /  10.4 °C 50.2 °F /  10.1 °C 30.1in /  1018.2hPa West 8.5mph /  13.7km/h 13.2mph /  21.2km/h 98% 0.03in /  0.8mm
11:38 50.7 °F /  10.4 °C 50.2 °F /  10.1 °C 30.1in /  1018.2hPa WSW 8.5mph /  13.7km/h 13.2mph /  21.2km/h 98% 0.02in /  0.5mm
11:43 50.7 °F /  10.4 °C 50.2 °F /  10.1 °C 30.1in /  1018.2hPa West 6.3mph /  10.1km/h 11.4mph /  18.3km/h 98% 0.02in /  0.5mm
11:48 50.7 °F /  10.4 °C 50.2 °F /  10.1 °C 30.1in /  1018.2hPa West 12.8mph /  20.6km/h 13.2mph /  21.2km/h 98% 0.03in /  0.8mm
11:53 50.9 °F /  10.5 °C 50.4 °F /  10.2 °C 30.1in /  1018.2hPa West 10.1mph /  16.3km/h 13.2mph /  21.2km/h 98% 0.03in /  0.8mm
11:58 50.9 °F /  10.5 °C 50.4 °F /  10.2 °C 30.1in /  1018.2hPa WSW 8.1mph /  13.0km/h 12.8mph /  20.6km/h 98% 0.03in /  0.8mm
12:03 50.9 °F /  10.5 °C 50.4 °F /  10.2 °C 30.1in /  1018.2hPa WSW 10.5mph /  16.9km/h 15.7mph /  25.3km/h 98% 0.02in /  0.5mm
12:08 51.1 °F /  10.6 °C 50.5 °F /  10.3 °C 30.1in /  1018.2hPa WSW 9.8mph /  15.8km/h 15.7mph /  25.3km/h 98% 0.02in /  0.5mm
12:13 51.1 °F /  10.6 °C 50.5 °F /  10.3 °C 30.1in /  1018.2hPa WSW 7.8mph /  12.6km/h 12.8mph /  20.6km/h 98% 0.03in /  0.8mm
12:18 51.3 °F /  10.7 °C 50.7 °F /  10.4 °C 30.1in /  1018.2hPa West 12.8mph /  20.6km/h 12.8mph /  20.6km/h 98% 0.03in /  0.8mm
12:23 51.3 °F /  10.7 °C 50.7 °F /  10.4 °C 30in /  1016.8hPa West 10.3mph /  16.6km/h 14.1mph /  22.7km/h 98% 0.02in /  0.5mm
12:28 51.3 °F /  10.7 °C 50.7 °F /  10.4 °C 30in /  1016.8hPa WSW 6.3mph /  10.1km/h 14.1mph /  22.7km/h 98% 0.02in /  0.5mm
12:33 51.4 °F /  10.8 °C 50.9 °F /  10.5 °C 30in /  1016.8hPa WSW 9.8mph /  15.8km/h 12.8mph /  20.6km/h 98% 0.02in /  0.5mm
12:38 51.4 °F /  10.8 °C 50.9 °F /  10.5 °C 30.1in /  1018.2hPa West 8.7mph /  14.0km/h 12.8mph /  20.6km/h 98% 0.02in /  0.5mm
12:43 51.6 °F /  10.9 °C 51.1 °F /  10.6 °C 30.1in /  1018.2hPa West 8.5mph /  13.7km/h 12.8mph /  20.6km/h 98% 0.02in /  0.5mm
12:48 51.8 °F /  11.0 °C 51.3 °F /  10.7 °C 30.1in /  1018.2hPa West 7.8mph /  12.6km/h 12.1mph /  19.5km/h 98% 0.01in /  0.3mm
12:53 52 °F /  11.1 °C 51.4 °F /  10.8 °C 30in /  1016.8hPa West 10.1mph /  16.3km/h 12.1mph /  19.5km/h 98% 0.01in /  0.3mm
12:58 52.2 °F /  11.2 °C 51.6 °F /  10.9 °C 30in /  1016.8hPa West 8.1mph /  13.0km/h 11mph /  17.7km/h 98% 0.01in /  0.3mm
13:03 52.2 °F /  11.2 °C 51.6 °F /  10.9 °C 30in /  1016.8hPa WSW 8.7mph /  14.0km/h 12.5mph /  20.1km/h 98% 0.01in /  0.3mm
13:08 52.2 °F /  11.2 °C 51.6 °F /  10.9 °C 30in /  1016.8hPa West 10.7mph /  17.2km/h 13mph /  20.9km/h 98% 0.01in /  0.3mm
13:13 52.3 °F /  11.3 °C 51.6 °F /  10.9 °C 30in /  1016.8hPa West 10.3mph /  16.6km/h 13mph /  20.9km/h 98% 0in /  0.0mm
13:18 52.3 °F /  11.3 °C 51.6 °F /  10.9 °C 30in /  1016.8hPa WSW 5.6mph /  9.0km/h 13.6mph /  21.9km/h 98% 0in /  0.0mm
13:23 52.3 °F /  11.3 °C 51.6 °F /  10.9 °C 30in /  1016.8hPa West 7.6mph /  12.2km/h 13.6mph /  21.9km/h 98% 0in /  0.0mm
13:28 52.3 °F /  11.3 °C 51.6 °F /  10.9 °C 30in /  1016.8hPa West 10.3mph /  16.6km/h 13mph /  20.9km/h 98% 0in /  0.0mm
13:33 52.3 °F /  11.3 °C 51.6 °F /  10.9 °C 30in /  1016.8hPa WSW 6.3mph /  10.1km/h 15.9mph /  25.6km/h 98% 0in /  0.0mm
13:38 52.3 °F /  11.3 °C 51.6 °F /  10.9 °C 30in /  1016.8hPa West 11mph /  17.7km/h 15.9mph /  25.6km/h 98% 0in /  0.0mm
13:43 52.2 °F /  11.2 °C 51.6 °F /  10.9 °C 30in /  1016.8hPa WSW 12.5mph /  20.1km/h 16.1mph /  25.9km/h 98% 0in /  0.0mm
13:48 52.2 °F /  11.2 °C 51.6 °F /  10.9 °C 30in /  1016.8hPa WSW 11.9mph /  19.1km/h 16.1mph /  25.9km/h 98% 0in /  0.0mm
13:53 52.3 °F /  11.3 °C 51.4 °F /  10.8 °C 30in /  1016.1hPa WSW 11mph /  17.7km/h 14.1mph /  22.7km/h 97% 0in /  0.0mm
13:58 52.3 °F /  11.3 °C 51.4 °F /  10.8 °C 30in /  1016.1hPa WSW 8.5mph /  13.7km/h 13.2mph /  21.2km/h 97% 0in /  0.0mm
14:03 52.5 °F /  11.4 °C 51.8 °F /  11.0 °C 30in /  1016.1hPa WSW 8.7mph /  14.0km/h 13.2mph /  21.2km/h 97% 0in /  0.0mm
14:08 52.5 °F /  11.4 °C 51.8 °F /  11.0 °C 30in /  1016.8hPa West 8.7mph /  14.0km/h 12.8mph /  20.6km/h 97% 0in /  0.0mm
14:13 52.9 °F /  11.6 °C 52 °F /  11.1 °C 30in /  1016.8hPa WSW 8.1mph /  13.0km/h 12.8mph /  20.6km/h 97% 0in /  0.0mm
14:18 53.1 °F /  11.7 °C 52 °F /  11.1 °C 30in /  1016.8hPa West 10.1mph /  16.3km/h 13.6mph /  21.9km/h 96% 0in /  0.0mm
14:23 53.2 °F /  11.8 °C 52.2 °F /  11.2 °C 30in /  1016.8hPa WSW 7.8mph /  12.6km/h 13.6mph /  21.9km/h 96% 0in /  0.0mm
14:28 53.2 °F /  11.8 °C 52 °F /  11.1 °C 30in /  1016.8hPa West 9.8mph /  15.8km/h 13.4mph /  21.6km/h 95% 0in /  0.0mm
14:33 53.4 °F /  11.9 °C 52.2 °F /  11.2 °C 30in /  1016.8hPa WSW 10.3mph /  16.6km/h 16.3mph /  26.2km/h 95% 0in /  0.0mm
14:38 53.4 °F /  11.9 °C 52.2 °F /  11.2 °C 30in /  1016.8hPa West 11mph /  17.7km/h 16.3mph /  26.2km/h 95% 0in /  0.0mm
14:43 53.8 °F /  12.1 °C 52.3 °F /  11.3 °C 30in /  1016.8hPa West 10.3mph /  16.6km/h 15.2mph /  24.5km/h 95% 0in /  0.0mm
14:48 53.8 °F /  12.1 °C 52 °F /  11.1 °C 30in /  1016.8hPa WSW 10.5mph /  16.9km/h 15.2mph /  24.5km/h 94% 0in /  0.0mm
14:53 53.8 °F /  12.1 °C 52 °F /  11.1 °C 30in /  1016.8hPa West 10.7mph /  17.2km/h 13.2mph /  21.2km/h 94% 0in /  0.0mm
14:58 53.4 °F /  11.9 °C 51.8 °F /  11.0 °C 30in /  1016.8hPa WSW 10.7mph /  17.2km/h 15.2mph /  24.5km/h 94% 0in /  0.0mm
15:03 53.4 °F /  11.9 °C 51.8 °F /  11.0 °C 30in /  1016.8hPa SW 8.1mph /  13.0km/h 15.2mph /  24.5km/h 94% 0in /  0.0mm
15:08 53.4 °F /  11.9 °C 51.8 °F /  11.0 °C 30in /  1016.8hPa West 11mph /  17.7km/h 14.1mph /  22.7km/h 94% 0in /  0.0mm
15:13 53.2 °F /  11.8 °C 51.6 °F /  10.9 °C 30in /  1016.8hPa SW 10.3mph /  16.6km/h 14.1mph /  22.7km/h 94% 0in /  0.0mm
15:18 53.2 °F /  11.8 °C 51.4 °F /  10.8 °C 30in /  1016.8hPa WSW 12.1mph /  19.5km/h 15.2mph /  24.5km/h 94% 0in /  0.0mm
15:23 53.2 °F /  11.8 °C 51.4 °F /  10.8 °C 30in /  1016.8hPa West 10.1mph /  16.3km/h 15.2mph /  24.5km/h 94% 0in /  0.0mm
15:28 53.1 °F /  11.7 °C 51.6 °F /  10.9 °C 30in /  1016.8hPa West 7.6mph /  12.2km/h 14.8mph /  23.8km/h 95% 0in /  0.0mm
15:33 53.1 °F /  11.7 °C 51.6 °F /  10.9 °C 30in /  1016.8hPa WSW 11.4mph /  18.3km/h 14.8mph /  23.8km/h 95% 0in /  0.0mm
15:38 53.1 °F /  11.7 °C 51.6 °F /  10.9 °C 30in /  1016.1hPa West 10.1mph /  16.3km/h 14.8mph /  23.8km/h 95% 0in /  0.0mm
15:43 53.1 °F /  11.7 °C 51.6 °F /  10.9 °C 30in /  1016.1hPa West 6.5mph /  10.5km/h 13mph /  20.9km/h 95% 0in /  0.0mm
15:48 53.2 °F /  11.8 °C 51.4 °F /  10.8 °C 30in /  1016.1hPa WSW 6mph /  9.7km/h 13mph /  20.9km/h 94% 0in /  0.0mm
15:53 53.2 °F /  11.8 °C 51.6 °F /  10.9 °C 30in /  1016.1hPa WSW 7.8mph /  12.6km/h 10.7mph /  17.2km/h 94% 0in /  0.0mm
15:58 53.2 °F /  11.8 °C 51.4 °F /  10.8 °C 30in /  1016.1hPa West 8.5mph /  13.7km/h 12.8mph /  20.6km/h 94% 0in /  0.0mm
16:03 53.2 °F /  11.8 °C 51.4 °F /  10.8 °C 30in /  1016.1hPa WSW 8.1mph /  13.0km/h 12.8mph /  20.6km/h 94% 0in /  0.0mm
16:08 53.1 °F /  11.7 °C 51.6 °F /  10.9 °C 30in /  1016.1hPa West 6.5mph /  10.5km/h 12.5mph /  20.1km/h 95% 0in /  0.0mm
16:13 52.9 °F /  11.6 °C 51.4 °F /  10.8 °C 30in /  1016.1hPa WSW 8.1mph /  13.0km/h 12.5mph /  20.1km/h 95% 0in /  0.0mm
16:18 52.9 °F /  11.6 °C 51.4 °F /  10.8 °C 30in /  1016.1hPa WSW 13mph /  20.9km/h 13.2mph /  21.2km/h 95% 0in /  0.0mm
16:23 52.9 °F /  11.6 °C 51.4 °F /  10.8 °C 30in /  1015.1hPa WSW 7.8mph /  12.6km/h 13.2mph /  21.2km/h 95% 0in /  0.0mm
16:28 53.1 °F /  11.7 °C 51.6 °F /  10.9 °C 30in /  1015.1hPa WSW 7.6mph /  12.2km/h 13mph /  20.9km/h 95% 0in /  0.0mm
16:33 52.9 °F /  11.6 °C 51.4 °F /  10.8 °C 30in /  1015.1hPa West 10.7mph /  17.2km/h 11mph /  17.7km/h 95% 0in /  0.0mm
16:38 52.5 °F /  11.4 °C 51.3 °F /  10.7 °C 30in /  1015.1hPa WSW 8.5mph /  13.7km/h 13mph /  20.9km/h 95% 0in /  0.0mm
16:43 52.5 °F /  11.4 °C 51.3 °F /  10.7 °C 30in /  1015.1hPa WSW 8.1mph /  13.0km/h 13mph /  20.9km/h 95% 0in /  0.0mm
16:48 52.5 °F /  11.4 °C 51.3 °F /  10.7 °C 30in /  1015.1hPa WSW 13.2mph /  21.2km/h 13.2mph /  21.2km/h 95% 0in /  0.0mm
16:53 52.5 °F /  11.4 °C 51.3 °F /  10.7 °C 30in /  1015.1hPa WSW 10.3mph /  16.6km/h 15.4mph /  24.8km/h 95% 0in /  0.0mm
16:58 52.3 °F /  11.3 °C 50.9 °F /  10.5 °C 30in /  1015.1hPa WSW 5.8mph /  9.3km/h 15.4mph /  24.8km/h 95% 0in /  0.0mm
17:03 52.2 °F /  11.2 °C 50.7 °F /  10.4 °C 30in /  1015.1hPa WSW 7.4mph /  11.9km/h 12.8mph /  20.6km/h 95% 0in /  0.0mm
17:08 52.2 °F /  11.2 °C 50.7 °F /  10.4 °C 30in /  1015.1hPa WSW 10.1mph /  16.3km/h 11mph /  17.7km/h 95% 0in /  0.0mm
17:13 52 °F /  11.1 °C 50.5 °F /  10.3 °C 30in /  1015.1hPa West 12.5mph /  20.1km/h 13mph /  20.9km/h 95% 0in /  0.0mm
17:18 51.8 °F /  11.0 °C 50.4 °F /  10.2 °C 30in /  1015.1hPa WSW 10.7mph /  17.2km/h 13mph /  20.9km/h 95% 0in /  0.0mm
17:23 51.8 °F /  11.0 °C 50.4 °F /  10.2 °C 30in /  1015.1hPa WSW 10.7mph /  17.2km/h 13.2mph /  21.2km/h 95% 0in /  0.0mm
17:28 51.6 °F /  10.9 °C 50.2 °F /  10.1 °C 30in /  1015.1hPa WSW 6mph /  9.7km/h 13.2mph /  21.2km/h 95% 0in /  0.0mm
17:33 51.6 °F /  10.9 °C 50.2 °F /  10.1 °C 30in /  1015.1hPa WSW 10.3mph /  16.6km/h 12.5mph /  20.1km/h 95% 0in /  0.0mm
17:38 51.6 °F /  10.9 °C 50.2 °F /  10.1 °C 30in /  1015.1hPa WSW 10.5mph /  16.9km/h 14.8mph /  23.8km/h 95% 0in /  0.0mm
17:43 51.4 °F /  10.8 °C 50 °F /  10.0 °C 30in /  1015.1hPa WSW 10.1mph /  16.3km/h 15.2mph /  24.5km/h 95% 0in /  0.0mm
17:48 51.4 °F /  10.8 °C 50 °F /  10.0 °C 30in /  1015.1hPa WSW 12.5mph /  20.1km/h 15.9mph /  25.6km/h 95% 0in /  0.0mm
17:53 51.3 °F /  10.7 °C 49.8 °F /  9.9 °C 30in /  1015.1hPa SW 8.7mph /  14.0km/h 16.1mph /  25.9km/h 95% 0in /  0.0mm
17:58 51.3 °F /  10.7 °C 49.8 °F /  9.9 °C 30in /  1015.1hPa SW 13.2mph /  21.2km/h 16.1mph /  25.9km/h 95% 0in /  0.0mm
18:03 51.3 °F /  10.7 °C 49.8 °F /  9.9 °C 30in /  1015.1hPa WSW 13.9mph /  22.4km/h 14.8mph /  23.8km/h 95% 0in /  0.0mm
18:08 51.1 °F /  10.6 °C 49.6 °F /  9.8 °C 30in /  1015.1hPa WSW 13.2mph /  21.2km/h 16.8mph /  27.0km/h 95% 0.01in /  0.3mm
18:13 51.1 °F /  10.6 °C 49.6 °F /  9.8 °C 30in /  1015.1hPa WSW 9.8mph /  15.8km/h 16.8mph /  27.0km/h 95% 0.01in /  0.3mm
18:18 50.9 °F /  10.5 °C 49.8 °F /  9.9 °C 30in /  1015.1hPa West 11mph /  17.7km/h 15.9mph /  25.6km/h 96% 0.01in /  0.3mm
18:23 50.9 °F /  10.5 °C 49.8 °F /  9.9 °C 30in /  1015.1hPa WSW 13.9mph /  22.4km/h 17.2mph /  27.7km/h 96% 0.01in /  0.3mm
18:28 50.9 °F /  10.5 °C 49.8 °F /  9.9 °C 30in /  1015.1hPa WSW 15.2mph /  24.5km/h 18.1mph /  29.1km/h 96% 0.01in /  0.3mm
18:33 50.9 °F /  10.5 °C 49.8 °F /  9.9 °C 30in /  1015.1hPa WSW 12.5mph /  20.1km/h 18.1mph /  29.1km/h 96% 0.01in /  0.3mm
18:38 50.7 °F /  10.4 °C 49.6 °F /  9.8 °C 30in /  1015.1hPa SSW 10.3mph /  16.6km/h 17mph /  27.4km/h 96% 0.01in /  0.3mm
18:43 50.7 °F /  10.4 °C 49.6 °F /  9.8 °C 30in /  1015.1hPa WSW 15.2mph /  24.5km/h 15.7mph /  25.3km/h 96% 0.01in /  0.3mm
18:48 50.7 °F /  10.4 °C 49.6 °F /  9.8 °C 30in /  1015.1hPa West 13.9mph /  22.4km/h 19.5mph /  31.4km/h 96% 0.01in /  0.3mm
18:53 50.7 °F /  10.4 °C 49.6 °F /  9.8 °C 30in /  1015.1hPa WSW 12.5mph /  20.1km/h 19.5mph /  31.4km/h 96% 0.01in /  0.3mm
18:58 50.7 °F /  10.4 °C 49.6 °F /  9.8 °C 30in /  1015.1hPa WSW 12.8mph /  20.6km/h 19.5mph /  31.4km/h 96% 0.01in /  0.3mm
19:03 50.7 °F /  10.4 °C 49.6 °F /  9.8 °C 30in /  1015.1hPa WSW 11mph /  17.7km/h 19.5mph /  31.4km/h 96% 0.01in /  0.3mm
19:08 50.7 °F /  10.4 °C 49.6 °F /  9.8 °C 30in /  1015.1hPa WSW 15.4mph /  24.8km/h 17.4mph /  28.0km/h 96% 0in /  0.0mm
19:13 50.7 °F /  10.4 °C 49.6 °F /  9.8 °C 30in /  1015.1hPa WSW 10.1mph /  16.3km/h 17.7mph /  28.5km/h 96% 0in /  0.0mm
19:18 50.5 °F /  10.3 °C 49.5 °F /  9.7 °C 30in /  1015.1hPa WSW 10.7mph /  17.2km/h 17.7mph /  28.5km/h 96% 0in /  0.0mm
19:23 50.5 °F /  10.3 °C 49.5 °F /  9.7 °C 30in /  1015.1hPa WSW 15.4mph /  24.8km/h 15.4mph /  24.8km/h 96% 0in /  0.0mm
19:28 50.5 °F /  10.3 °C 49.5 °F /  9.7 °C 30in /  1015.1hPa WSW 14.8mph /  23.8km/h 15.9mph /  25.6km/h 96% 0in /  0.0mm
19:33 50.5 °F /  10.3 °C 49.5 °F /  9.7 °C 30in /  1015.1hPa WSW 13mph /  20.9km/h 21mph /  33.8km/h 96% 0in /  0.0mm
19:38 50.5 °F /  10.3 °C 49.1 °F /  9.5 °C 30in /  1015.1hPa WSW 16.1mph /  25.9km/h 21mph /  33.8km/h 95% 0in /  0.0mm
19:43 50.5 °F /  10.3 °C 49.1 °F /  9.5 °C 30in /  1015.1hPa West 17.9mph /  28.8km/h 22.4mph /  36.0km/h 95% 0in /  0.0mm
19:48 50.5 °F /  10.3 °C 49.1 °F /  9.5 °C 30in /  1015.1hPa WSW 17.4mph /  28.0km/h 22.4mph /  36.0km/h 95% 0in /  0.0mm
19:53 50.5 °F /  10.3 °C 49.1 °F /  9.5 °C 30in /  1015.1hPa WSW 15.7mph /  25.3km/h 21.5mph /  34.6km/h 95% 0in /  0.0mm
19:58 50.5 °F /  10.3 °C 49.1 °F /  9.5 °C 30in /  1015.1hPa WSW 14.5mph /  23.3km/h 21.5mph /  34.6km/h 95% 0in /  0.0mm
20:03 50.5 °F /  10.3 °C 49.1 °F /  9.5 °C 30in /  1015.1hPa West 11mph /  17.7km/h 22.4mph /  36.0km/h 95% 0in /  0.0mm
20:08 50.5 °F /  10.3 °C 49.1 °F /  9.5 °C 30in /  1015.1hPa WSW 12.8mph /  20.6km/h 22.4mph /  36.0km/h 95% 0in /  0.0mm
20:13 50.5 °F /  10.3 °C 49.1 °F /  9.5 °C 30in /  1015.1hPa West 22.8mph /  36.7km/h 22.8mph /  36.7km/h 95% 0in /  0.0mm
20:18 50.5 °F /  10.3 °C 49.1 °F /  9.5 °C 30in /  1015.1hPa WSW 12.8mph /  20.6km/h 23.3mph /  37.5km/h 95% 0in /  0.0mm
20:23 50.5 °F /  10.3 °C 49.1 °F /  9.5 °C 29.9in /  1014.1hPa West 14.5mph /  23.3km/h 23.3mph /  37.5km/h 95% 0in /  0.0mm
20:28 50.5 °F /  10.3 °C 49.1 °F /  9.5 °C 29.9in /  1014.1hPa WSW 17.7mph /  28.5km/h 20.8mph /  33.5km/h 95% 0in /  0.0mm
20:33 50.5 °F /  10.3 °C 49.1 °F /  9.5 °C 29.9in /  1014.1hPa WSW 17mph /  27.4km/h 19.7mph /  31.7km/h 95% 0in /  0.0mm
20:38 50.4 °F /  10.2 °C 48.9 °F /  9.4 °C 29.9in /  1014.1hPa WSW 13.6mph /  21.9km/h 19.7mph /  31.7km/h 95% 0in /  0.0mm
20:43 50.4 °F /  10.2 °C 48.9 °F /  9.4 °C 29.9in /  1014.1hPa West 10.1mph /  16.3km/h 20.1mph /  32.3km/h 95% 0in /  0.0mm
20:48 50.4 °F /  10.2 °C 48.9 °F /  9.4 °C 29.9in /  1014.1hPa West 13mph /  20.9km/h 20.1mph /  32.3km/h 95% 0in /  0.0mm
20:53 50.4 °F /  10.2 °C 48.9 °F /  9.4 °C 30in /  1015.1hPa WSW 13.4mph /  21.6km/h 21.9mph /  35.2km/h 95% 0in /  0.0mm
20:58 50.4 °F /  10.2 °C 48.9 °F /  9.4 °C 30in /  1015.1hPa WSW 19.9mph /  32.0km/h 21.9mph /  35.2km/h 95% 0in /  0.0mm
21:03 50.4 °F /  10.2 °C 48.9 °F /  9.4 °C 30in /  1015.1hPa WSW 14.8mph /  23.8km/h 19.9mph /  32.0km/h 95% 0.01in /  0.3mm
21:08 50.4 °F /  10.2 °C 48.9 °F /  9.4 °C 29.9in /  1014.1hPa WSW 23.7mph /  38.1km/h 23.7mph /  38.1km/h 95% 0.01in /  0.3mm
21:13 50.4 °F /  10.2 °C 48.9 °F /  9.4 °C 29.9in /  1014.1hPa WSW 19.5mph /  31.4km/h 23.7mph /  38.1km/h 95% 0.01in /  0.3mm
21:18 50.4 °F /  10.2 °C 48.9 °F /  9.4 °C 29.9in /  1014.1hPa WSW 16.8mph /  27.0km/h 22.1mph /  35.6km/h 95% 0.01in /  0.3mm
21:23 50.4 °F /  10.2 °C 48.9 °F /  9.4 °C 29.9in /  1014.1hPa WSW 13.2mph /  21.2km/h 20.6mph /  33.1km/h 95% 0.01in /  0.3mm
21:28 50.4 °F /  10.2 °C 48.9 °F /  9.4 °C 29.9in /  1014.1hPa West 12.8mph /  20.6km/h 20.6mph /  33.1km/h 95% 0.01in /  0.3mm
21:33 50.4 °F /  10.2 °C 48.9 °F /  9.4 °C 29.9in /  1014.1hPa West 15.4mph /  24.8km/h 22.6mph /  36.4km/h 95% 0.01in /  0.3mm
21:38 50.5 °F /  10.3 °C 49.1 °F /  9.5 °C 29.9in /  1014.1hPa West 23.7mph /  38.1km/h 23.7mph /  38.1km/h 95% 0.01in /  0.3mm
21:43 50.5 °F /  10.3 °C 49.1 °F /  9.5 °C 29.9in /  1014.1hPa WSW 17.2mph /  27.7km/h 23.7mph /  38.1km/h 95% 0.01in /  0.3mm
21:48 50.5 °F /  10.3 °C 49.1 °F /  9.5 °C 29.9in /  1014.1hPa WSW 15.2mph /  24.5km/h 23.7mph /  38.1km/h 95% 0.01in /  0.3mm
21:53 50.5 °F /  10.3 °C 49.1 °F /  9.5 °C 29.9in /  1014.1hPa WSW 16.1mph /  25.9km/h 23.7mph /  38.1km/h 95% 0.01in /  0.3mm
21:58 50.5 °F /  10.3 °C 49.1 °F /  9.5 °C 29.9in /  1014.1hPa West 19.7mph /  31.7km/h 23.7mph /  38.1km/h 95% 0.01in /  0.3mm
22:04 50.5 °F /  10.3 °C 49.1 °F /  9.5 °C 29.9in /  1014.1hPa West 22.8mph /  36.7km/h 24.4mph /  39.3km/h 95% 0in /  0.0mm
22:09 50.5 °F /  10.3 °C 49.1 °F /  9.5 °C 29.9in /  1014.1hPa West 16.1mph /  25.9km/h 24.4mph /  39.3km/h 95% 0in /  0.0mm
22:14 50.5 °F /  10.3 °C 49.1 °F /  9.5 °C 29.9in /  1014.1hPa WSW 15.4mph /  24.8km/h 22.8mph /  36.7km/h 95% 0in /  0.0mm
22:19 50.5 °F /  10.3 °C 49.1 °F /  9.5 °C 29.9in /  1014.1hPa WSW 13mph /  20.9km/h 24.6mph /  39.6km/h 95% 0in /  0.0mm
22:24 50.5 °F /  10.3 °C 49.1 °F /  9.5 °C 29.9in /  1014.1hPa WSW 17.4mph /  28.0km/h 24.6mph /  39.6km/h 95% 0in /  0.0mm
22:29 50.5 °F /  10.3 °C 49.1 °F /  9.5 °C 29.9in /  1014.1hPa WSW 23.5mph /  37.8km/h 24.2mph /  38.9km/h 95% 0in /  0.0mm
22:34 50.5 °F /  10.3 °C 49.1 °F /  9.5 °C 29.9in /  1014.1hPa WSW 19.7mph /  31.7km/h 24.2mph /  38.9km/h 95% 0in /  0.0mm
22:39 50.7 °F /  10.4 °C 49.3 °F /  9.6 °C 29.9in /  1014.1hPa West 18.8mph /  30.2km/h 26.8mph /  43.1km/h 95% 0in /  0.0mm
22:44 50.7 °F /  10.4 °C 49.3 °F /  9.6 °C 29.9in /  1014.1hPa WSW 12.8mph /  20.6km/h 26.8mph /  43.1km/h 95% 0in /  0.0mm
22:49 50.5 °F /  10.3 °C 49.1 °F /  9.5 °C 29.9in /  1014.1hPa WSW 13.2mph /  21.2km/h 25.3mph /  40.7km/h 95% 0in /  0.0mm
22:54 50.5 °F /  10.3 °C 49.1 °F /  9.5 °C 29.9in /  1014.1hPa WSW 22.6mph /  36.4km/h 23mph /  37.0km/h 95% 0in /  0.0mm
22:59 50.5 °F /  10.3 °C 49.1 °F /  9.5 °C 29.9in /  1014.1hPa WSW 18.8mph /  30.2km/h 23mph /  37.0km/h 95% 0in /  0.0mm
23:04 50.5 °F /  10.3 °C 49.1 °F /  9.5 °C 29.9in /  1014.1hPa WSW 15.2mph /  24.5km/h 23mph /  37.0km/h 95% 0in /  0.0mm
23:09 50.5 °F /  10.3 °C 49.1 °F /  9.5 °C 29.9in /  1014.1hPa WSW 15.2mph /  24.5km/h 20.8mph /  33.5km/h 95% 0in /  0.0mm
23:14 50.5 °F /  10.3 °C 49.1 °F /  9.5 °C 29.9in /  1014.1hPa West 15.2mph /  24.5km/h 25.1mph /  40.4km/h 95% 0in /  0.0mm
23:19 50.5 °F /  10.3 °C 49.1 °F /  9.5 °C 29.9in /  1014.1hPa WSW 12.8mph /  20.6km/h 25.1mph /  40.4km/h 95% 0in /  0.0mm
23:24 50.5 °F /  10.3 °C 49.1 °F /  9.5 °C 29.9in /  1014.1hPa WSW 18.8mph /  30.2km/h 24.2mph /  38.9km/h 95% 0in /  0.0mm
23:29 50.4 °F /  10.2 °C 48.9 °F /  9.4 °C 29.9in /  1014.1hPa WSW 18.6mph /  29.9km/h 22.1mph /  35.6km/h 95% 0in /  0.0mm
23:34 50.4 °F /  10.2 °C 48.9 °F /  9.4 °C 29.9in /  1014.1hPa WSW 15.9mph /  25.6km/h 19.9mph /  32.0km/h 95% 0in /  0.0mm
23:39 50.4 °F /  10.2 °C 48.9 °F /  9.4 °C 29.9in /  1013.1hPa WSW 22.4mph /  36.0km/h 23.9mph /  38.5km/h 95% 0in /  0.0mm
23:44 50.4 °F /  10.2 °C 48.9 °F /  9.4 °C 29.9in /  1013.1hPa West 19.9mph /  32.0km/h 24.4mph /  39.3km/h 95% 0in /  0.0mm
23:49 50.4 °F /  10.2 °C 48.9 °F /  9.4 °C 29.9in /  1013.1hPa WSW 21.3mph /  34.3km/h 24.4mph /  39.3km/h 95% 0in /  0.0mm
23:54 50.4 °F /  10.2 °C 48.9 °F /  9.4 °C 29.9in /  1013.1hPa WSW 27.1mph /  43.6km/h 27.1mph /  43.6km/h 95% 0in /  0.0mm
23:59 50.4 °F /  10.2 °C 48.9 °F /  9.4 °C 29.9in /  1013.1hPa WSW 16.3mph /  26.2km/h 27.1mph /  43.6km/h 95% 0in /  0.0mm
Données Historique de Météo Turbie

Mise a jour : 21/05/2018 16:54:12
Généré par Cumulus 1.9.4 (1099)